Time;durP1;ratioP1;P1;durP2;ratioP2;P2;SDS_P1;SDS_P2;PMS_P1;PMS_P2;Temp;Humidity;BMP_temperature;BMP_pressure;BME280_temperature;BME280_humidity;BME280_pressure;Samples;Min_cycle;Max_cycle;Signal;HPM_P1;HPM_P2
2022/05/10 00:01:33;;;;;;;8.80;6.87;;;16.60;99.90;;;;;;5055945;28;20500;-79
2022/05/10 00:04:01;;;;;;;8.07;7.27;;;16.70;99.90;;;;;;5055914;28;20183;-79
2022/05/10 00:06:34;;;;;;;7.77;6.90;;;16.70;99.90;;;;;;5056006;28;20499;-80
2022/05/10 00:09:00;;;;;;;9.27;7.23;;;16.70;99.90;;;;;;5056187;28;20498;-79
2022/05/10 00:11:25;;;;;;;8.93;7.03;;;16.70;99.90;;;;;;5056210;28;20409;-80
2022/05/10 00:13:51;;;;;;;8.73;7.03;;;16.70;99.90;;;;;;5055936;28;20514;-80
2022/05/10 00:16:18;;;;;;;8.23;7.43;;;16.70;99.90;;;;;;5055592;28;20198;-80
2022/05/10 00:18:45;;;;;;;10.20;7.97;;;16.70;99.90;;;;;;5055888;28;20569;-79
2022/05/10 00:21:14;;;;;;;11.77;7.73;;;16.60;99.90;;;;;;5055556;28;20780;-80
2022/05/10 00:23:39;;;;;;;10.30;6.90;;;16.60;99.90;;;;;;5055837;28;20931;-80
2022/05/10 00:26:05;;;;;;;8.87;7.97;;;16.60;99.90;;;;;;5055759;28;20406;-80
2022/05/10 00:28:31;;;;;;;9.43;8.17;;;16.60;99.90;;;;;;5055612;28;20186;-80
2022/05/10 00:30:57;;;;;;;9.90;8.40;;;16.50;99.90;;;;;;5054912;28;20315;-79
2022/05/10 00:33:27;;;;;;;9.47;7.93;;;16.50;99.90;;;;;;5055445;28;20547;-79
2022/05/10 00:35:53;;;;;;;15.93;7.80;;;16.50;99.90;;;;;;5054952;28;20178;-79
2022/05/10 00:38:22;;;;;;;9.07;7.83;;;16.40;99.90;;;;;;5055312;28;20520;-80
2022/05/10 00:40:47;;;;;;;9.97;8.97;;;16.30;99.90;;;;;;5057264;28;20997;-79
2022/05/10 00:43:33;;;;;;;11.30;7.60;;;16.30;99.90;;;;;;5059151;28;20455;-79
2022/05/10 00:46:26;;;;;;;9.00;7.47;;;16.30;99.90;;;;;;5058800;28;20183;-80
2022/05/10 00:49:09;;;;;;;9.70;8.23;;;16.30;99.90;;;;;;5058957;28;20448;-80
2022/05/10 00:51:38;;;;;;;9.50;8.17;;;16.30;99.90;;;;;;5058719;28;20421;-80
2022/05/10 00:54:28;;;;;;;10.03;7.60;;;16.30;99.90;;;;;;5058957;28;20543;-80
2022/05/10 00:57:04;;;;;;;10.47;8.30;;;16.40;99.90;;;;;;5058530;28;20425;-80
2022/05/10 01:00:02;;;;;;;8.27;7.33;;;16.50;99.90;;;;;;5058718;28;20413;-80
2022/05/10 01:02:45;;;;;;;8.90;7.43;;;16.60;99.90;;;;;;5069188;28;20504;-80
2022/05/10 01:05:32;;;;;;;10.30;8.10;;;16.60;99.90;;;;;;5058286;28;20420;-79
2022/05/10 01:08:05;;;;;;;11.10;8.37;;;16.50;99.90;;;;;;5057988;28;20947;-79
2022/05/10 01:10:47;;;;;;;8.10;6.83;;;16.40;99.90;;;;;;5058395;28;20426;-79
2022/05/10 01:13:24;;;;;;;9.30;8.27;;;16.30;99.90;;;;;;5057773;28;20492;-80
2022/05/10 01:16:10;;;;;;;9.80;8.23;;;16.10;99.90;;;;;;5057814;28;20424;-79
2022/05/10 01:18:38;;;;;;;10.93;8.17;;;16.00;99.90;;;;;;5057799;28;20417;-79
2022/05/10 01:21:42;;;;;;;9.30;7.93;;;15.80;99.90;;;;;;5057780;28;20455;-79
2022/05/10 01:24:41;;;;;;;11.80;8.63;;;15.70;99.90;;;;;;5068752;28;20478;-79
2022/05/10 01:27:31;;;;;;;8.27;7.10;;;15.60;99.90;;;;;;5058084;28;21034;-79
2022/05/10 01:30:29;;;;;;;12.27;8.27;;;15.50;99.90;;;;;;5057598;28;20473;-79
2022/05/10 01:36:04;;;;;;;11.47;7.77;;;15.50;99.90;;;;;;5076096;28;20443;-79
2022/05/10 01:38:56;;;;;;;8.67;7.40;;;15.60;99.90;;;;;;5025555;28;20460;-79
2022/05/10 01:41:37;;;;;;;9.60;7.57;;;15.60;99.90;;;;;;5063707;28;20421;-80
2022/05/10 01:44:22;;;;;;;9.93;7.43;;;15.70;99.90;;;;;;5063986;28;20461;-80
2022/05/10 01:46:54;;;;;;;9.73;7.60;;;15.70;99.90;;;;;;5064292;28;20506;-81
2022/05/10 01:49:36;;;;;;;10.10;7.37;;;15.70;99.90;;;;;;5079221;22;20520;-80
2022/05/10 01:52:27;;;;;;;9.30;7.37;;;15.60;99.90;;;;;;5026676;28;20924;-80
2022/05/10 01:55:05;;;;;;;12.37;8.57;;;15.60;99.90;;;;;;5054749;28;20438;-81
2022/05/10 01:57:34;;;;;;;9.37;7.97;;;15.60;99.90;;;;;;5054931;28;20893;-80
2022/05/10 02:00:17;;;;;;;8.20;7.30;;;15.50;99.90;;;;;;5033173;28;20526;-80
2022/05/10 02:02:49;;;;;;;10.80;7.80;;;15.50;99.90;;;;;;5017218;28;20431;-80
2022/05/10 02:05:26;;;;;;;9.07;8.17;;;15.40;99.90;;;;;;5017603;28;20419;-80
2022/05/10 02:07:55;;;;;;;10.73;7.57;;;15.20;99.90;;;;;;5036128;28;20485;-80
2022/05/10 02:10:32;;;;;;;10.23;7.90;;;15.10;99.90;;;;;;5017849;28;21031;-80
2022/05/10 02:13:11;;;;;;;11.73;8.43;;;15.10;99.90;;;;;;5017957;28;20462;-80
2022/05/10 02:15:53;;;;;;;9.37;7.90;;;15.00;99.90;;;;;;5034285;28;20403;-79
2022/05/10 02:18:27;;;;;;;10.07;7.93;;;15.00;99.90;;;;;;5016812;28;20403;-80
2022/05/10 02:21:01;;;;;;;11.67;8.33;;;15.00;99.90;;;;;;5016336;28;20446;-80
2022/05/10 02:23:32;;;;;;;10.07;7.77;;;15.00;99.90;;;;;;5016888;28;20411;-79
2022/05/10 02:26:04;;;;;;;9.10;7.40;;;15.00;99.90;;;;;;5016619;28;20419;-80
2022/05/10 02:28:37;;;;;;;9.13;7.97;;;15.00;99.90;;;;;;5016590;28;20475;-80
2022/05/10 02:31:13;;;;;;;8.90;8.00;;;15.00;99.90;;;;;;5033753;28;21011;-79
2022/05/10 02:33:41;;;;;;;9.30;8.30;;;14.90;99.90;;;;;;5033959;28;20450;-80
2022/05/10 02:36:07;;;;;;;11.73;8.03;;;15.00;99.90;;;;;;5016262;28;20427;-80
2022/05/10 02:38:36;;;;;;;8.87;7.93;;;15.10;99.90;;;;;;5034133;28;20469;-79
2022/05/10 02:41:08;;;;;;;10.07;9.00;;;15.00;99.90;;;;;;5016156;28;20291;-80
2022/05/10 02:43:41;;;;;;;10.40;8.83;;;15.00;99.90;;;;;;5016188;28;20426;-80
2022/05/10 02:46:06;;;;;;;11.30;8.27;;;14.90;99.90;;;;;;5016334;28;20411;-80
2022/05/10 02:48:36;;;;;;;8.87;7.97;;;14.90;99.90;;;;;;5033850;28;20418;-80
2022/05/10 02:51:04;;;;;;;8.40;7.23;;;14.80;99.90;;;;;;5015838;28;20787;-80
2022/05/10 02:53:29;;;;;;;11.57;9.10;;;14.70;99.90;;;;;;5033725;28;20843;-80
2022/05/10 02:56:01;;;;;;;9.60;8.37;;;14.60;99.90;;;;;;5033634;28;20419;-80
2022/05/10 02:58:49;;;;;;;9.33;8.43;;;14.60;99.90;;;;;;5016097;28;20449;-80
2022/05/10 03:01:35;;;;;;;10.03;8.53;;;14.50;99.90;;;;;;5015885;28;20423;-80
2022/05/10 03:04:03;;;;;;;9.80;8.37;;;14.60;99.90;;;;;;5033428;28;20562;-80
2022/05/10 03:06:29;;;;;;;9.63;8.30;;;14.60;99.90;;;;;;5039357;28;20429;-80
2022/05/10 03:08:57;;;;;;;10.50;8.60;;;14.50;99.90;;;;;;5035535;28;20453;-80
2022/05/10 03:11:23;;;;;;;11.17;8.90;;;14.50;99.90;;;;;;5053058;28;20788;-79
2022/05/10 03:13:49;;;;;;;9.97;8.17;;;14.50;99.90;;;;;;5053148;28;20506;-79
2022/05/10 03:16:18;;;;;;;10.90;9.43;;;14.50;99.90;;;;;;5052992;28;20440;-80
2022/05/10 03:18:46;;;;;;;11.43;8.70;;;14.60;99.90;;;;;;5035276;28;20458;-80
2022/05/10 03:21:12;;;;;;;11.30;8.90;;;14.60;99.90;;;;;;5034807;28;20817;-80
2022/05/10 03:23:38;;;;;;;9.47;7.60;;;14.60;99.90;;;;;;5035463;28;20427;-80
2022/05/10 03:26:04;;;;;;;9.53;8.53;;;14.60;99.90;;;;;;5034912;28;20430;-80
2022/05/10 03:28:30;;;;;;;11.10;8.80;;;14.60;99.90;;;;;;5035216;28;20214;-80
2022/05/10 03:30:56;;;;;;;10.00;8.47;;;14.50;99.90;;;;;;5034810;28;20476;-80
2022/05/10 03:33:22;;;;;;;9.50;7.73;;;14.50;99.90;;;;;;5034721;28;20458;-80
2022/05/10 03:35:47;;;;;;;10.70;9.30;;;14.50;99.90;;;;;;5052832;28;20176;-79
2022/05/10 03:38:13;;;;;;;10.77;8.60;;;14.40;99.90;;;;;;5034828;28;20214;-80
2022/05/10 03:40:39;;;;;;;11.87;8.47;;;14.40;99.90;;;;;;5034820;28;20208;-80
2022/05/10 03:43:07;;;;;;;9.77;8.13;;;14.40;99.90;;;;;;5034744;28;20232;-79
2022/05/10 03:45:33;;;;;;;10.27;8.97;;;14.40;99.90;;;;;;5034695;28;20865;-79
2022/05/10 03:47:59;;;;;;;10.73;8.50;;;14.40;99.90;;;;;;5034936;28;20446;-80
2022/05/10 03:50:24;;;;;;;9.20;8.30;;;14.40;99.90;;;;;;5052305;28;20227;-80
2022/05/10 03:52:51;;;;;;;9.27;8.27;;;14.50;99.90;;;;;;5034372;28;20207;-79
2022/05/10 03:55:22;;;;;;;7.47;6.70;;;14.50;99.90;;;;;;5051122;28;20183;-79
2022/05/10 03:57:49;;;;;;;10.13;8.03;;;14.60;99.90;;;;;;5034590;28;20433;-80
2022/05/10 04:00:19;;;;;;;8.63;7.57;;;14.60;99.90;;;;;;5051857;28;20435;-79
2022/05/10 04:02:45;;;;;;;8.10;7.30;;;14.70;99.90;;;;;;5052301;28;20414;-80
2022/05/10 04:05:13;;;;;;;9.10;8.20;;;14.80;99.90;;;;;;5051935;28;20428;-80
2022/05/10 04:07:39;;;;;;;10.20;7.53;;;14.90;99.90;;;;;;5034485;28;20429;-80
2022/05/10 04:10:08;;;;;;;9.50;8.50;;;14.90;99.90;;;;;;5051824;28;20446;-80
2022/05/10 04:12:35;;;;;;;10.30;8.37;;;15.00;99.90;;;;;;5034275;28;20462;-79
2022/05/10 04:15:01;;;;;;;9.30;7.77;;;15.00;99.90;;;;;;5033637;28;20421;-79
2022/05/10 04:17:26;;;;;;;8.40;7.60;;;15.20;99.90;;;;;;5051997;28;20414;-79
2022/05/10 04:19:52;;;;;;;9.93;7.80;;;15.20;99.90;;;;;;5033968;28;20732;-79
2022/05/10 04:22:18;;;;;;;8.80;7.57;;;15.30;99.90;;;;;;5051913;28;20222;-79
2022/05/10 04:24:43;;;;;;;11.83;8.60;;;15.40;99.90;;;;;;5052049;28;20196;-79
2022/05/10 04:27:09;;;;;;;9.87;8.13;;;15.40;99.90;;;;;;5051661;28;20226;-79
2022/05/10 04:29:34;;;;;;;8.57;7.67;;;15.40;99.90;;;;;;5050608;28;20211;-80
2022/05/10 04:32:00;;;;;;;8.37;7.20;;;15.50;99.90;;;;;;5033602;28;20184;-80
2022/05/10 04:34:26;;;;;;;11.00;7.77;;;15.60;99.90;;;;;;5050750;28;20184;-80
2022/05/10 04:36:51;;;;;;;9.57;7.90;;;15.60;99.90;;;;;;5033763;28;20211;-79
2022/05/10 04:39:17;;;;;;;8.73;7.90;;;15.70;99.90;;;;;;5033977;28;20222;-80
2022/05/10 04:41:52;;;;;;;9.47;7.93;;;15.70;99.90;;;;;;5033616;28;20191;-79
2022/05/10 04:44:18;;;;;;;10.30;8.03;;;15.70;99.90;;;;;;5051821;28;20171;-80
2022/05/10 04:46:43;;;;;;;8.03;7.13;;;15.70;99.90;;;;;;5051631;28;20555;-80
2022/05/10 04:49:12;;;;;;;10.40;7.97;;;15.70;99.90;;;;;;5050080;28;20545;-80
2022/05/10 04:51:38;;;;;;;8.97;7.60;;;15.70;99.90;;;;;;5033932;28;20632;-79
2022/05/10 04:54:05;;;;;;;9.43;7.70;;;15.80;99.90;;;;;;5033522;28;20979;-80
2022/05/10 04:56:30;;;;;;;8.90;7.53;;;15.80;99.90;;;;;;5033685;28;20768;-80
2022/05/10 04:58:56;;;;;;;9.87;8.23;;;15.80;99.90;;;;;;5059561;28;20426;-80
2022/05/10 05:01:26;;;;;;;10.40;7.87;;;15.80;99.90;;;;;;5041310;28;20634;-80
2022/05/10 05:03:55;;;;;;;9.30;8.03;;;15.80;99.90;;;;;;5041350;28;20192;-80
2022/05/10 05:06:24;;;;;;;9.27;8.27;;;15.80;99.90;;;;;;5033960;28;20852;-80
2022/05/10 05:08:49;;;;;;;10.37;7.80;;;15.90;99.90;;;;;;5051456;28;20924;-80
2022/05/10 05:11:16;;;;;;;10.13;8.50;;;16.10;99.90;;;;;;5053466;28;20422;-80
2022/05/10 05:13:41;;;;;;;11.50;8.90;;;16.10;99.90;;;;;;5040449;28;20685;-80
2022/05/10 05:16:07;;;;;;;10.13;7.80;;;16.20;99.90;;;;;;5057125;28;20429;-80
2022/05/10 05:18:33;;;;;;;11.33;8.17;;;16.30;99.90;;;;;;5057920;28;20180;-80
2022/05/10 05:20:58;;;;;;;10.23;8.17;;;16.40;99.90;;;;;;5057974;28;20347;-80
2022/05/10 05:23:24;;;;;;;9.60;8.60;;;16.50;99.90;;;;;;5058212;28;20176;-81
2022/05/10 05:25:52;;;;;;;8.90;7.07;;;16.60;99.90;;;;;;5040120;28;20188;-80
2022/05/10 05:28:18;;;;;;;8.90;7.67;;;16.70;99.90;;;;;;5060436;28;20254;-80
2022/05/10 05:30:44;;;;;;;9.43;7.57;;;16.80;99.90;;;;;;5059742;28;20456;-80
2022/05/10 05:33:10;;;;;;;9.47;7.50;;;16.90;99.90;;;;;;5060722;28;20271;-80
2022/05/10 05:35:37;;;;;;;8.97;7.47;;;17.00;99.90;;;;;;5042367;28;20418;-80
2022/05/10 05:38:02;;;;;;;9.37;7.00;;;17.10;99.90;;;;;;5060774;28;20417;-81
2022/05/10 05:40:28;;;;;;;8.30;7.50;;;17.20;99.90;;;;;;5058912;28;20438;-81
2022/05/10 05:42:54;;;;;;;8.40;7.33;;;17.20;99.90;;;;;;5060662;28;20186;-81
2022/05/10 05:45:22;;;;;;;6.90;6.20;;;17.30;99.90;;;;;;5060272;28;20446;-81
2022/05/10 05:47:48;;;;;;;7.93;7.10;;;17.40;99.90;;;;;;5060073;28;20190;-81
2022/05/10 05:50:16;;;;;;;7.27;6.27;;;17.50;99.90;;;;;;5041284;28;20468;-81
2022/05/10 05:52:42;;;;;;;8.57;7.67;;;17.50;99.90;;;;;;5041443;28;20489;-80
2022/05/10 05:55:09;;;;;;;9.60;7.80;;;17.60;99.90;;;;;;5059485;28;20417;-81
2022/05/10 05:57:36;;;;;;;11.63;7.60;;;17.60;99.90;;;;;;5059367;28;20487;-80
2022/05/10 06:00:05;;;;;;;8.83;7.03;;;17.70;99.90;;;;;;5058734;28;20441;-80
2022/05/10 06:02:30;;;;;;;9.47;7.30;;;17.80;99.90;;;;;;5040254;28;20461;-81
2022/05/10 06:04:56;;;;;;;9.47;7.87;;;17.80;99.90;;;;;;5057215;28;20472;-82
2022/05/10 06:07:21;;;;;;;7.50;6.70;;;17.80;99.90;;;;;;5039698;28;20180;-80
2022/05/10 06:09:48;;;;;;;8.73;7.80;;;17.80;99.90;;;;;;5056681;28;20202;-81
2022/05/10 06:12:16;;;;;;;9.47;7.30;;;17.80;99.90;;;;;;5056560;28;20250;-81
2022/05/10 06:14:42;;;;;;;9.30;8.27;;;17.80;99.90;;;;;;5038635;28;20804;-82
2022/05/10 06:17:09;;;;;;;8.80;7.90;;;17.90;99.90;;;;;;5038326;28;20418;-80
2022/05/10 06:19:38;;;;;;;11.23;8.70;;;18.00;99.90;;;;;;5055975;28;20430;-81
2022/05/10 06:22:05;;;;;;;9.33;8.37;;;18.10;99.90;;;;;;5037878;28;20786;-82
2022/05/10 06:24:30;;;;;;;11.60;9.03;;;18.10;99.90;;;;;;5037642;28;20410;-82
2022/05/10 06:26:56;;;;;;;10.60;9.00;;;18.20;99.90;;;;;;5038070;28;20421;-81
2022/05/10 06:29:21;;;;;;;9.33;8.30;;;18.20;99.90;;;;;;5037974;28;20237;-82
2022/05/10 06:31:48;;;;;;;9.40;7.90;;;18.30;99.90;;;;;;5056202;28;20171;-82
2022/05/10 06:34:15;;;;;;;9.73;8.67;;;18.40;99.90;;;;;;5057153;28;20203;-81
2022/05/10 06:36:41;;;;;;;9.10;8.20;;;18.50;99.90;;;;;;5056710;28;20928;-81
2022/05/10 06:39:08;;;;;;;8.73;7.70;;;18.60;99.90;;;;;;5038191;28;20414;-82
2022/05/10 06:41:34;;;;;;;9.83;8.40;;;18.70;99.90;;;;;;5056513;28;20430;-82
2022/05/10 06:44:01;;;;;;;10.87;8.97;;;18.80;99.90;;;;;;5038907;28;20418;-81
2022/05/10 06:46:30;;;;;;;11.80;8.97;;;18.80;99.90;;;;;;5038152;28;20426;-81
2022/05/10 06:48:56;;;;;;;8.67;7.60;;;18.80;99.90;;;;;;5038453;28;20472;-81
2022/05/10 06:51:23;;;;;;;7.90;7.10;;;18.90;99.90;;;;;;5056318;28;20430;-81
2022/05/10 06:53:49;;;;;;;7.67;6.93;;;18.90;99.90;;;;;;5056375;28;20209;-81
2022/05/10 06:56:15;;;;;;;7.60;6.80;;;18.90;99.90;;;;;;5038077;28;20487;-81
2022/05/10 06:58:41;;;;;;;8.70;7.50;;;19.00;99.90;;;;;;5038145;28;20418;-82
2022/05/10 07:01:11;;;;;;;8.63;7.23;;;19.20;99.90;;;;;;5037802;28;20490;-82
2022/05/10 07:03:39;;;;;;;9.83;7.97;;;19.30;99.90;;;;;;5037641;28;20203;-82
2022/05/10 07:06:07;;;;;;;12.23;7.53;;;19.30;99.90;;;;;;5037400;28;20933;-81
2022/05/10 07:08:34;;;;;;;10.97;7.70;;;19.40;99.90;;;;;;5055815;28;20440;-81
2022/05/10 07:11:00;;;;;;;12.20;7.60;;;19.50;99.90;;;;;;5038032;28;20457;-82
2022/05/10 07:13:27;;;;;;;11.60;7.83;;;19.60;99.90;;;;;;5055470;28;20552;-83
2022/05/10 07:15:53;;;;;;;9.33;7.23;;;19.80;99.90;;;;;;5055706;28;20258;-81
2022/05/10 07:18:19;;;;;;;8.80;6.60;;;19.90;99.90;;;;;;5055822;28;20441;-82
2022/05/10 07:20:46;;;;;;;8.20;6.70;;;20.10;99.90;;;;;;5037133;28;20214;-82
2022/05/10 07:23:13;;;;;;;7.40;6.50;;;20.20;99.90;;;;;;5037219;28;20418;-82
2022/05/10 07:25:40;;;;;;;7.67;6.60;;;20.50;99.90;;;;;;5037015;28;20940;-82
2022/05/10 07:28:06;;;;;;;7.90;6.40;;;20.60;99.90;;;;;;5055563;28;20449;-82
2022/05/10 07:30:33;;;;;;;7.83;6.10;;;20.80;99.90;;;;;;5053333;28;20442;-82
2022/05/10 07:32:59;;;;;;;8.53;6.37;;;21.00;99.90;;;;;;5036573;28;20469;-82
2022/05/10 07:38:12;;;;;;;11.63;7.87;;;21.10;99.90;;;;;;5055021;28;20871;-82
2022/05/10 07:40:38;;;;;;;11.60;7.47;;;21.30;99.90;;;;;;5035781;28;21051;-81
2022/05/10 07:43:06;;;;;;;8.60;6.70;;;21.50;99.90;;;;;;5054398;28;20421;-82
2022/05/10 07:45:32;;;;;;;9.53;8.53;;;21.80;99.90;;;;;;5036383;28;20418;-82
2022/05/10 07:47:58;;;;;;;8.40;7.10;;;21.90;99.90;;;;;;5036055;28;20421;-82
2022/05/10 07:50:23;;;;;;;10.20;7.47;;;22.20;99.90;;;;;;5088436;22;20489;-84
2022/05/10 07:52:49;;;;;;;7.40;6.60;;;22.50;99.90;;;;;;5071409;28;20664;-82
2022/05/10 07:55:15;;;;;;;7.90;6.70;;;22.80;99.90;;;;;;5052129;28;20605;-82
2022/05/10 07:57:44;;;;;;;8.10;6.37;;;23.10;99.90;;;;;;5034608;28;20203;-81
2022/05/10 08:00:12;;;;;;;7.40;6.43;;;23.60;99.90;;;;;;5051812;28;20450;-82
2022/05/10 08:02:43;;;;;;;8.83;6.17;;;24.00;99.90;;;;;;5051031;28;20422;-82
2022/05/10 08:05:16;;;;;;;6.43;5.47;;;24.10;99.90;;;;;;5052106;28;20418;-82
2022/05/10 08:07:42;;;;;;;6.17;5.57;;;24.50;99.90;;;;;;5045420;28;20515;-82
2022/05/10 08:10:07;;;;;;;6.43;5.10;;;25.00;99.90;;;;;;5013313;28;20892;-83
2022/05/10 08:12:33;;;;;;;7.30;5.67;;;25.40;99.90;;;;;;5014165;28;20278;-84
2022/05/10 08:14:59;;;;;;;6.43;5.63;;;26.00;99.90;;;;;;5014392;28;20176;-83
2022/05/10 08:17:24;;;;;;;8.97;6.07;;;26.10;99.90;;;;;;5031851;28;20647;-83
2022/05/10 08:19:51;;;;;;;6.97;5.20;;;26.30;99.90;;;;;;5014191;28;20635;-83
2022/05/10 08:22:17;;;;;;;5.90;5.30;;;26.70;99.90;;;;;;5013466;28;20639;-83
2022/05/10 08:24:43;;;;;;;5.20;4.50;;;26.90;99.90;;;;;;5031922;28;20430;-83
2022/05/10 08:27:08;;;;;;;6.07;5.47;;;27.60;99.90;;;;;;5031708;28;20231;-84
2022/05/10 08:29:34;;;;;;;7.47;6.70;;;28.50;99.90;;;;;;5031878;28;20647;-84
2022/05/10 08:31:59;;;;;;;6.87;5.77;;;29.00;99.90;;;;;;5013993;28;20222;-83
2022/05/10 08:34:27;;;;;;;5.67;5.10;;;29.60;99.90;;;;;;5031466;28;20286;-83
2022/05/10 08:36:53;;;;;;;5.13;4.60;;;29.80;97.40;;;;;;5013874;28;20184;-84
2022/05/10 08:39:18;;;;;;;6.10;5.17;;;29.80;94.20;;;;;;5025042;28;20434;-83
2022/05/10 08:42:01;;;;;;;5.93;4.37;;;29.30;93.00;;;;;;5033548;28;20332;-83
2022/05/10 08:44:29;;;;;;;4.90;4.40;;;29.90;93.20;;;;;;5051503;28;20204;-82
2022/05/10 08:46:58;;;;;;;5.30;4.50;;;31.20;88.80;;;;;;5033730;28;20960;-83
2022/05/10 08:49:34;;;;;;;4.47;3.93;;;32.50;84.40;;;;;;5051580;28;20452;-83
2022/05/10 08:52:00;;;;;;;4.50;3.90;;;33.50;74.80;;;;;;5033475;28;20837;-84
2022/05/10 08:54:29;;;;;;;8.50;4.43;;;34.40;70.70;;;;;;5051496;28;20468;-83
2022/05/10 08:57:35;;;;;;;4.87;4.37;;;34.60;63.90;;;;;;5051255;28;20246;-84
2022/05/10 09:00:10;;;;;;;6.00;5.40;;;34.30;59.70;;;;;;5017431;28;20452;-83
2022/05/10 09:02:54;;;;;;;4.80;4.40;;;34.10;58.30;;;;;;5054508;28;20425;-83
2022/05/10 09:05:28;;;;;;;4.67;4.17;;;33.60;60.00;;;;;;5053261;28;20813;-83
2022/05/10 09:08:09;;;;;;;7.00;4.57;;;33.80;60.20;;;;;;5054540;28;20421;-84
2022/05/10 09:10:59;;;;;;;4.43;4.03;;;33.40;57.40;;;;;;5052636;28;20603;-83
2022/05/10 09:13:24;;;;;;;5.10;4.10;;;33.20;57.00;;;;;;5033798;28;20461;-83
2022/05/10 09:15:56;;;;;;;4.50;4.00;;;33.80;58.80;;;;;;5058838;28;20429;-83
2022/05/10 09:18:31;;;;;;;4.80;4.30;;;34.20;55.30;;;;;;5040689;28;20184;-83
2022/05/10 09:21:14;;;;;;;5.03;4.53;;;33.40;54.50;;;;;;5057477;28;20453;-83
2022/05/10 09:24:14;;;;;;;4.83;4.13;;;32.70;53.90;;;;;;5056720;28;20909;-83
2022/05/10 09:26:42;;;;;;;5.27;3.57;;;32.20;55.30;;;;;;5056844;28;20491;-82
2022/05/10 09:29:33;;;;;;;4.70;3.83;;;32.10;55.10;;;;;;5056040;28;20763;-82
2022/05/10 09:34:59;;;;;;;4.93;4.43;;;32.70;54.60;;;;;;5057759;28;20485;-83
2022/05/10 09:37:34;;;;;;;6.17;4.53;;;34.80;55.00;;;;;;5058340;28;20809;-83
2022/05/10 09:40:12;;;;;;;7.00;3.60;;;36.00;48.60;;;;;;5058161;28;20494;-84
2022/05/10 09:42:50;;;;;;;4.60;4.10;;;36.60;46.90;;;;;;5056818;28;20418;-83
2022/05/10 09:45:24;;;;;;;3.87;3.43;;;35.50;45.40;;;;;;5058513;28;20386;-84
2022/05/10 09:47:58;;;;;;;5.87;3.60;;;34.80;46.10;;;;;;5058048;28;20436;-83
2022/05/10 09:50:39;;;;;;;6.00;3.70;;;34.10;45.20;;;;;;5039156;28;20508;-83
2022/05/10 09:53:07;;;;;;;4.10;3.70;;;32.60;45.90;;;;;;5057576;28;20457;-83
2022/05/10 09:55:33;;;;;;;4.43;3.93;;;31.50;47.60;;;;;;5056370;28;20768;-82
2022/05/10 09:58:22;;;;;;;6.47;4.17;;;31.00;50.10;;;;;;5056248;28;20851;-83
2022/05/10 10:00:52;;;;;;;4.17;3.77;;;30.40;51.10;;;;;;5055660;28;20929;-83
2022/05/10 10:03:38;;;;;;;4.60;3.17;;;30.20;51.80;;;;;;5055945;28;20571;-83
2022/05/10 10:06:21;;;;;;;5.27;3.40;;;30.00;52.80;;;;;;5051737;28;20606;-84
2022/05/10 10:08:49;;;;;;;4.73;4.23;;;30.10;51.60;;;;;;5035391;28;20765;-85
2022/05/10 10:11:31;;;;;;;4.20;3.00;;;29.90;49.50;;;;;;5037217;28;20529;-84
2022/05/10 10:14:06;;;;;;;4.93;3.10;;;29.40;49.80;;;;;;5036586;28;20531;-85
2022/05/10 10:16:46;;;;;;;3.70;2.70;;;28.90;50.10;;;;;;5055443;28;20471;-84
2022/05/10 10:19:43;;;;;;;7.40;3.37;;;28.70;50.60;;;;;;5054450;28;20489;-85
2022/05/10 10:22:24;;;;;;;4.53;3.57;;;29.00;54.60;;;;;;5054831;28;20437;-84
2022/05/10 10:25:01;;;;;;;5.13;2.80;;;29.30;50.80;;;;;;5054994;28;20481;-86
2022/05/10 10:27:45;;;;;;;6.57;3.60;;;29.60;50.60;;;;;;5055297;28;20483;-85
2022/05/10 10:30:31;;;;;;;4.20;3.23;;;30.00;51.40;;;;;;5054248;28;20430;-84
2022/05/10 10:33:22;;;;;;;3.30;2.80;;;30.00;49.00;;;;;;5036121;28;20903;-87
2022/05/10 10:35:54;;;;;;;3.80;3.30;;;29.90;49.40;;;;;;5036758;28;20925;-84
2022/05/10 10:38:48;;;;;;;3.43;3.00;;;29.80;48.00;;;;;;5037290;28;20461;-87
2022/05/10 10:41:18;;;;;;;3.37;2.60;;;29.80;48.10;;;;;;5054213;28;20426;-84
2022/05/10 10:43:58;;;;;;;3.60;3.10;;;29.40;50.40;;;;;;5054350;28;20425;-86
2022/05/10 10:46:55;;;;;;;6.17;3.30;;;29.30;48.80;;;;;;5053620;28;20510;-86
2022/05/10 10:49:26;;;;;;;4.27;2.77;;;29.20;50.00;;;;;;5036344;28;20418;-85
2022/05/10 10:51:52;;;;;;;4.80;3.30;;;29.40;52.20;;;;;;5030926;28;20558;-87
2022/05/10 10:54:21;;;;;;;3.77;3.37;;;29.70;50.40;;;;;;5035359;28;20603;-86
2022/05/10 10:57:01;;;;;;;3.93;2.40;;;29.70;49.10;;;;;;5052658;28;20202;-86
2022/05/10 10:59:42;;;;;;;3.73;2.83;;;29.60;48.80;;;;;;5053866;28;20832;-86
2022/05/10 11:02:46;;;;;;;3.57;2.57;;;29.60;49.80;;;;;;5053689;28;20441;-87
2022/05/10 11:05:31;;;;;;;4.60;3.33;;;29.30;50.20;;;;;;5053832;28;20441;-85
2022/05/10 11:08:21;;;;;;;3.37;2.80;;;28.70;47.90;;;;;;5054088;28;20405;-86
2022/05/10 11:10:56;;;;;;;3.40;2.77;;;28.30;49.30;;;;;;5053731;28;20441;-86
2022/05/10 11:13:33;;;;;;;5.07;3.57;;;28.00;50.50;;;;;;5035683;28;20886;-84
2022/05/10 11:16:24;;;;;;;15.30;6.37;;;28.00;50.40;;;;;;5053587;28;20485;-85
2022/05/10 11:18:56;;;;;;;14.80;6.00;;;27.80;49.80;;;;;;5030264;28;20503;-84
2022/05/10 11:22:06;;;;;;;8.10;4.33;;;27.70;50.60;;;;;;5035950;28;20430;-84
2022/05/10 11:24:54;;;;;;;5.43;4.60;;;27.60;51.90;;;;;;5053890;28;20405;-85
2022/05/10 11:27:38;;;;;;;8.87;3.97;;;27.80;52.00;;;;;;5066443;28;20402;-85
2022/05/10 11:30:19;;;;;;;4.10;3.10;;;27.90;54.60;;;;;;5037074;28;20488;-86
2022/05/10 11:33:13;;;;;;;4.20;2.87;;;28.30;52.60;;;;;;5054270;28;20488;-85
2022/05/10 11:36:06;;;;;;;3.87;2.83;;;28.90;52.90;;;;;;5035321;28;20426;-83
2022/05/10 11:38:40;;;;;;;4.50;3.27;;;29.00;51.20;;;;;;5054850;28;20819;-84
2022/05/10 11:41:50;;;;;;;3.97;3.20;;;28.90;49.30;;;;;;5053907;28;20433;-84
2022/05/10 11:44:54;;;;;;;5.80;3.10;;;28.80;50.50;;;;;;5052568;28;20472;-84
2022/05/10 11:47:41;;;;;;;5.40;3.33;;;28.60;51.30;;;;;;5053289;28;20398;-85
2022/05/10 11:50:15;;;;;;;4.57;3.10;;;28.50;51.50;;;;;;5053175;28;20847;-84
2022/05/10 11:52:59;;;;;;;4.40;3.50;;;28.70;51.90;;;;;;5053817;28;20544;-84
2022/05/10 11:55:31;;;;;;;4.47;3.20;;;28.60;49.40;;;;;;5035869;28;20410;-84
2022/05/10 11:58:00;;;;;;;6.10;2.90;;;28.80;49.50;;;;;;5053836;28;20483;-85
2022/05/10 12:00:31;;;;;;;4.63;3.10;;;28.80;51.90;;;;;;5054553;28;20429;-85
2022/05/10 12:03:04;;;;;;;4.97;3.90;;;28.70;51.00;;;;;;5037134;28;20430;-84
2022/05/10 12:05:39;;;;;;;4.90;3.30;;;28.80;49.00;;;;;;5054796;28;20414;-84
2022/05/10 12:08:20;;;;;;;4.90;3.27;;;28.90;50.90;;;;;;5053936;28;20413;-84
2022/05/10 12:10:46;;;;;;;4.13;3.10;;;28.90;50.70;;;;;;5054655;28;20426;-84
2022/05/10 12:22:09;;;;;;;4.87;3.50;;;29.10;50.80;;;;;;5053682;28;20995;-84
2022/05/10 12:24:37;;;;;;;5.50;3.03;;;29.30;50.30;;;;;;5054298;28;20410;-85
2022/05/10 12:27:12;;;;;;;4.63;3.67;;;29.70;50.60;;;;;;5054399;28;20410;-84
2022/05/10 12:29:37;;;;;;;3.87;2.70;;;29.80;48.00;;;;;;5052504;28;20413;-84
2022/05/10 12:32:21;;;;;;;9.77;3.50;;;29.90;48.30;;;;;;5053422;28;20955;-84
2022/05/10 12:34:55;;;;;;;4.20;3.00;;;30.00;47.00;;;;;;5054446;28;20745;-83
2022/05/10 12:37:35;;;;;;;4.07;3.00;;;29.90;46.60;;;;;;5055890;28;20505;-83
2022/05/10 12:40:10;;;;;;;5.97;3.20;;;29.80;48.60;;;;;;5057502;28;20817;-84
2022/05/10 12:42:45;;;;;;;3.93;3.40;;;29.80;45.70;;;;;;5056206;28;20414;-84
2022/05/10 12:45:44;;;;;;;5.43;3.27;;;29.80;44.30;;;;;;5055719;28;20413;-85
2022/05/10 12:48:47;;;;;;;4.97;3.50;;;30.00;46.00;;;;;;5056010;28;20931;-85
2022/05/10 12:51:30;;;;;;;4.30;3.20;;;30.30;48.60;;;;;;5035750;28;20462;-86
2022/05/10 12:54:13;;;;;;;4.80;3.90;;;30.30;48.30;;;;;;5039194;28;20972;-86
2022/05/10 12:56:41;;;;;;;6.23;3.63;;;30.10;48.00;;;;;;5056507;28;20411;-85
2022/05/10 12:59:17;;;;;;;3.30;2.90;;;30.00;47.60;;;;;;5055850;28;20505;-84
2022/05/10 13:01:42;;;;;;;4.17;3.10;;;30.10;48.80;;;;;;5057127;28;20576;-87
2022/05/10 13:04:17;;;;;;;6.20;3.90;;;30.00;47.40;;;;;;5039852;28;20483;-83
2022/05/10 13:07:12;;;;;;;5.53;3.83;;;30.00;47.10;;;;;;5039862;28;20177;-84
2022/05/10 13:09:49;;;;;;;5.00;3.50;;;29.70;46.30;;;;;;5040866;28;20850;-83
2022/05/10 13:12:24;;;;;;;4.07;3.13;;;29.50;48.60;;;;;;5040894;28;20414;-84
2022/05/10 13:14:53;;;;;;;5.60;3.20;;;29.20;48.40;;;;;;5040279;28;20567;-84
2022/05/10 13:17:31;;;;;;;6.07;3.13;;;29.20;48.70;;;;;;5038243;28;20411;-83
2022/05/10 13:19:58;;;;;;;4.70;3.27;;;29.30;49.20;;;;;;5034965;28;20456;-83
2022/05/10 13:22:26;;;;;;;4.33;3.00;;;29.40;49.30;;;;;;5033591;28;20825;-83
2022/05/10 13:25:00;;;;;;;6.00;4.43;;;29.30;49.30;;;;;;5034994;28;20407;-83
2022/05/10 13:27:32;;;;;;;3.83;3.30;;;29.10;50.00;;;;;;5035194;28;20478;-82
2022/05/10 13:30:14;;;;;;;4.80;3.07;;;29.10;49.10;;;;;;5034760;28;20924;-82
2022/05/10 13:32:43;;;;;;;3.80;3.00;;;29.10;51.40;;;;;;5035009;28;20537;-82